createdAt,value
2018-02-27T00:01:16.429Z,6.45
2018-02-27T00:03:43.925Z,6.47
2018-02-27T00:06:11.450Z,7.15
2018-02-27T00:08:38.956Z,7.07
2018-02-27T00:11:06.448Z,9.05
2018-02-27T00:13:34.713Z,6.45
2018-02-27T00:16:02.987Z,7.15
2018-02-27T00:18:31.274Z,6.50
2018-02-27T00:20:59.572Z,6.37
2018-02-27T00:23:27.071Z,7.50
2018-02-27T00:25:54.577Z,7.60
2018-02-27T00:28:22.091Z,6.90
2018-02-27T00:30:49.642Z,6.68
2018-02-27T00:33:17.148Z,6.65
2018-02-27T00:35:45.428Z,6.00
2018-02-27T00:38:12.940Z,4.85
2018-02-27T00:40:40.433Z,7.10
2018-02-27T00:43:08.716Z,7.40
2018-02-27T00:45:36.997Z,6.60
2018-02-27T00:48:04.488Z,6.10
2018-02-27T00:50:32.007Z,7.00
2018-02-27T00:53:00.285Z,6.40
2018-02-27T00:55:27.798Z,6.45
2018-02-27T00:57:55.308Z,6.82
2018-02-27T01:00:22.839Z,6.15
2018-02-27T01:02:50.343Z,7.05
2018-02-27T01:05:17.834Z,8.48
2018-02-27T01:07:45.346Z,6.32
2018-02-27T01:10:12.860Z,6.87
2018-02-27T01:12:40.377Z,7.55
2018-02-27T01:15:07.883Z,7.35
2018-02-27T01:17:35.388Z,8.05
2018-02-27T01:20:02.898Z,8.13
2018-02-27T01:22:30.385Z,7.72
2018-02-27T01:24:57.920Z,6.87
2018-02-27T01:27:26.186Z,7.93
2018-02-27T01:29:53.699Z,7.72
2018-02-27T01:32:21.234Z,6.82
2018-02-27T01:34:48.732Z,8.10
2018-02-27T01:37:16.243Z,7.65
2018-02-27T01:39:44.521Z,7.57
2018-02-27T01:42:12.790Z,7.37
2018-02-27T01:44:41.072Z,8.02
2018-02-27T01:47:09.369Z,6.47
2018-02-27T01:49:36.879Z,8.27
2018-02-27T01:52:04.417Z,8.00
2018-02-27T01:54:31.915Z,7.75
2018-02-27T01:57:00.209Z,7.37
2018-02-27T01:59:27.730Z,8.00
2018-02-27T02:01:55.259Z,7.05
2018-02-27T02:04:22.758Z,7.20
2018-02-27T02:06:50.272Z,6.97
2018-02-27T02:09:17.766Z,8.13
2018-02-27T02:11:45.288Z,7.68
2018-02-27T02:14:12.809Z,7.45
2018-02-27T02:16:40.326Z,8.98
2018-02-27T02:19:07.832Z,7.78
2018-02-27T02:21:35.375Z,7.05
2018-02-27T02:24:03.681Z,6.70
2018-02-27T02:26:31.185Z,7.82
2018-02-27T02:28:58.696Z,6.65
2018-02-27T02:31:26.216Z,7.18
2018-02-27T02:33:53.780Z,7.90
2018-02-27T02:36:22.076Z,7.12
2018-02-27T02:38:49.561Z,6.35
2018-02-27T02:41:17.074Z,7.15
2018-02-27T02:43:45.351Z,7.75
2018-02-27T02:46:13.648Z,6.95
2018-02-27T02:48:41.158Z,7.35
2018-02-27T02:51:08.665Z,6.55
2018-02-27T02:53:36.166Z,6.60
2018-02-27T02:56:03.699Z,7.50
2018-02-27T02:58:31.201Z,6.60
2018-02-27T03:00:58.714Z,7.25
2018-02-27T03:03:26.206Z,7.50
2018-02-27T03:05:53.727Z,7.50
2018-02-27T03:08:21.231Z,6.93
2018-02-27T03:10:48.742Z,6.68
2018-02-27T03:13:16.251Z,6.40
2018-02-27T03:15:43.788Z,7.15
2018-02-27T03:18:11.286Z,7.47
2018-02-27T03:20:39.903Z,7.90
2018-02-27T03:23:07.389Z,7.55
2018-02-27T03:25:34.915Z,7.50
2018-02-27T03:28:02.420Z,7.50
2018-02-27T03:30:29.929Z,5.65
2018-02-27T03:32:57.454Z,6.93
2018-02-27T03:35:24.984Z,6.87
2018-02-27T03:37:52.497Z,6.75
2018-02-27T03:40:20.015Z,6.40
2018-02-27T03:42:47.579Z,6.60
2018-02-27T03:45:15.075Z,6.85
2018-02-27T03:47:42.585Z,6.18
2018-02-27T03:50:10.118Z,6.50
2018-02-27T03:52:37.654Z,6.28
2018-02-27T03:55:05.174Z,6.70
2018-02-27T03:57:32.699Z,6.22
2018-02-27T04:00:00.199Z,5.82
2018-02-27T04:02:28.487Z,5.35
2018-02-27T04:04:56.750Z,5.60
2018-02-27T04:07:24.256Z,7.12
2018-02-27T04:09:51.772Z,5.82
2018-02-27T04:12:20.050Z,6.30
2018-02-27T04:14:48.305Z,6.28
2018-02-27T04:17:15.816Z,5.55
2018-02-27T04:19:43.314Z,6.30
2018-02-27T04:22:10.825Z,5.80
2018-02-27T04:24:38.321Z,5.87
2018-02-27T04:27:05.837Z,5.95
2018-02-27T04:29:33.366Z,6.75
2018-02-27T04:32:00.863Z,6.20
2018-02-27T04:34:28.380Z,7.00
2018-02-27T04:36:55.908Z,7.47
2018-02-27T04:39:23.406Z,5.93
2018-02-27T04:41:51.699Z,7.22
2018-02-27T04:44:19.215Z,6.80
2018-02-27T04:46:46.727Z,6.55
2018-02-27T04:49:14.232Z,7.53
2018-02-27T04:51:41.755Z,6.93
2018-02-27T04:54:09.255Z,6.80
2018-02-27T04:56:36.775Z,7.20
2018-02-27T04:59:04.269Z,7.68
2018-02-27T05:01:31.794Z,9.45
2018-02-27T05:03:59.281Z,7.90
2018-02-27T05:06:26.789Z,7.75
2018-02-27T05:08:54.301Z,7.18
2018-02-27T05:11:21.830Z,8.20
2018-02-27T05:13:49.326Z,8.85
2018-02-27T05:16:16.851Z,7.32
2018-02-27T05:18:44.346Z,7.47
2018-02-27T05:21:11.857Z,12.75
2018-02-27T05:23:39.353Z,14.75
2018-02-27T05:26:06.866Z,12.10
2018-02-27T05:28:34.384Z,11.05
2018-02-27T05:31:02.667Z,12.85
2018-02-27T05:33:30.971Z,10.35
2018-02-27T05:35:58.494Z,11.18
2018-02-27T05:38:26.759Z,11.35
2018-02-27T05:40:54.288Z,10.02
2018-02-27T05:43:21.804Z,12.10
2018-02-27T05:45:49.342Z,11.80
2018-02-27T05:48:17.610Z,11.30
2018-02-27T05:50:45.121Z,12.25
2018-02-27T05:53:12.635Z,11.45
2018-02-27T05:55:40.927Z,11.23
2018-02-27T05:58:09.212Z,9.75
2018-02-27T06:00:36.790Z,10.32
2018-02-27T06:03:04.284Z,11.93
2018-02-27T06:05:31.800Z,11.05
2018-02-27T06:07:59.312Z,9.85
2018-02-27T06:10:26.837Z,10.48
2018-02-27T06:12:54.321Z,9.93
2018-02-27T06:15:21.843Z,10.10
2018-02-27T06:17:49.341Z,10.88
2018-02-27T06:20:16.850Z,11.70
2018-02-27T06:22:44.398Z,9.02
2018-02-27T06:25:12.668Z,9.80
2018-02-27T06:27:40.184Z,8.77
2018-02-27T06:30:07.696Z,9.73
2018-02-27T06:32:35.228Z,11.32
2018-02-27T06:35:03.509Z,10.07
2018-02-27T06:37:31.808Z,11.25
2018-02-27T06:39:59.318Z,11.48
2018-02-27T06:42:26.830Z,11.12
2018-02-27T06:44:54.391Z,10.43
2018-02-27T06:47:21.920Z,10.50
2018-02-27T06:49:50.193Z,11.35
2018-02-27T06:52:18.479Z,12.35
2018-02-27T06:54:45.973Z,12.77
2018-02-27T06:57:13.521Z,12.98
2018-02-27T06:59:41.018Z,13.82
2018-02-27T07:02:08.548Z,16.10
2018-02-27T07:04:36.061Z,15.25
2018-02-27T07:07:04.342Z,14.18
2018-02-27T07:09:32.602Z,12.35
2018-02-27T07:12:00.122Z,12.65
2018-02-27T07:14:27.619Z,12.10
2018-02-27T07:16:55.920Z,11.98
2018-02-27T07:19:23.424Z,10.63
2018-02-27T07:21:50.943Z,10.07
2018-02-27T07:24:18.450Z,10.57
2018-02-27T07:26:45.958Z,10.50
2018-02-27T07:29:13.459Z,10.88
2018-02-27T07:31:40.970Z,10.40
2018-02-27T07:34:08.480Z,9.40
2018-02-27T07:36:35.993Z,9.68
2018-02-27T07:39:03.494Z,10.40
2018-02-27T07:41:31.021Z,8.45
2018-02-27T07:43:58.535Z,9.73
2018-02-27T07:46:26.059Z,8.57
2018-02-27T07:48:53.578Z,9.30
2018-02-27T07:51:21.108Z,9.30
2018-02-27T07:53:48.621Z,10.00
2018-02-27T07:56:16.153Z,10.27
2018-02-27T07:58:43.655Z,9.23
2018-02-27T08:01:11.165Z,8.68
2018-02-27T08:03:38.683Z,9.32
2018-02-27T08:06:06.306Z,9.02
2018-02-27T08:08:33.809Z,9.10
2018-02-27T08:11:01.344Z,8.90
2018-02-27T08:13:28.847Z,8.70
2018-02-27T08:15:57.151Z,7.35
2018-02-27T08:18:24.661Z,8.32
2018-02-27T08:20:52.440Z,8.80
2018-02-27T08:23:19.954Z,8.70
2018-02-27T08:25:47.478Z,7.65
2018-02-27T08:28:14.995Z,7.95
2018-02-27T08:30:42.505Z,7.85
2018-02-27T08:33:10.014Z,8.02
2018-02-27T08:35:37.533Z,7.43
2018-02-27T08:38:05.029Z,7.70
2018-02-27T08:40:32.558Z,8.75
2018-02-27T08:43:00.075Z,8.30
2018-02-27T08:45:28.350Z,6.70
2018-02-27T08:47:56.617Z,8.20
2018-02-27T08:50:24.889Z,7.53
2018-02-27T08:52:53.162Z,8.15
2018-02-27T08:55:20.672Z,8.07
2018-02-27T08:57:48.161Z,7.18
2018-02-27T09:00:15.685Z,6.40
2018-02-27T09:02:43.177Z,6.97
2018-02-27T09:05:10.681Z,7.93
2018-02-27T09:07:38.198Z,8.85
2018-02-27T09:10:05.717Z,7.00
2018-02-27T09:12:33.225Z,7.62
2018-02-27T09:15:00.718Z,7.90
2018-02-27T09:17:28.233Z,7.95
2018-02-27T09:19:55.721Z,7.68
2018-02-27T09:22:24.009Z,8.10
2018-02-27T09:24:51.523Z,8.75
2018-02-27T09:27:19.048Z,7.55
2018-02-27T09:29:46.565Z,7.37
2018-02-27T09:32:14.841Z,6.57
2018-02-27T09:34:43.111Z,6.10
2018-02-27T09:37:11.381Z,6.53
2018-02-27T09:39:39.652Z,6.57
2018-02-27T09:42:07.946Z,6.43
2018-02-27T09:44:36.220Z,6.53
2018-02-27T09:47:04.498Z,5.80
2018-02-27T09:49:32.758Z,4.80
2018-02-27T09:52:00.308Z,5.72
2018-02-27T09:54:27.819Z,6.53
2018-02-27T09:56:55.368Z,6.68
2018-02-27T09:59:22.890Z,5.90
2018-02-27T10:01:50.436Z,5.70
2018-02-27T10:04:17.946Z,4.32
2018-02-27T10:06:45.468Z,4.43
2018-02-27T10:09:12.982Z,4.40
2018-02-27T10:11:40.497Z,4.37
2018-02-27T10:14:08.026Z,5.10
2018-02-27T10:16:35.537Z,4.55
2018-02-27T10:19:03.046Z,4.03
2018-02-27T10:21:30.569Z,4.72
2018-02-27T12:28:31.008Z,3.60
2018-02-27T12:30:58.531Z,4.10
2018-02-27T12:33:26.042Z,4.20
2018-02-27T12:35:54.318Z,4.57
2018-02-27T12:38:22.585Z,3.55
2018-02-27T12:40:50.885Z,4.15
2018-02-27T12:43:18.398Z,4.40
2018-02-27T12:45:45.919Z,5.12
2018-02-27T12:48:13.425Z,5.80
2018-02-27T12:50:40.973Z,4.43
2018-02-27T12:53:08.492Z,4.95
2018-02-27T12:55:36.052Z,5.78
2018-02-27T12:58:03.545Z,4.37
2018-02-27T13:00:31.871Z,4.50
2018-02-27T13:02:59.362Z,4.35
2018-02-27T13:05:26.901Z,3.55
2018-02-27T13:07:54.420Z,4.07
2018-02-27T13:10:21.951Z,3.53
2018-02-27T13:12:49.465Z,4.10
2018-02-27T13:15:17.008Z,4.25
2018-02-27T13:17:45.271Z,5.68
2018-02-27T13:20:12.766Z,3.30
2018-02-27T13:22:40.285Z,3.85
2018-02-27T13:25:07.790Z,3.83
2018-02-27T13:27:35.319Z,3.00
2018-02-27T13:30:03.589Z,3.62
2018-02-27T13:32:31.858Z,3.40
2018-02-27T13:34:59.381Z,2.90
2018-02-27T13:37:26.907Z,3.45
2018-02-27T13:39:54.419Z,2.67
2018-02-27T13:42:21.984Z,2.72
2018-02-27T13:44:49.498Z,3.30
2018-02-27T13:47:17.033Z,3.35
2018-02-27T13:49:45.290Z,3.60
2018-02-27T13:52:13.577Z,3.00
2018-02-27T13:54:41.860Z,2.40
2018-02-27T13:57:10.149Z,3.30
2018-02-27T13:59:37.651Z,3.40
2018-02-27T14:02:05.163Z,2.80
2018-02-27T14:04:32.675Z,2.60
2018-02-27T14:07:00.185Z,2.60
2018-02-27T14:09:27.692Z,2.50
2018-02-27T14:11:55.212Z,3.05
2018-02-27T14:14:22.732Z,3.50
2018-02-27T14:16:51.011Z,3.28
2018-02-27T14:19:19.299Z,2.90
2018-02-27T14:21:46.854Z,3.33
2018-02-27T14:24:15.141Z,4.57
2018-02-27T14:26:42.895Z,3.25
2018-02-27T14:29:10.430Z,3.28
2018-02-27T14:31:37.949Z,3.20
2018-02-27T14:34:05.453Z,2.80
2018-02-27T14:36:33.734Z,2.65
2018-02-27T14:39:02.028Z,3.25
2018-02-27T14:41:29.570Z,3.28
2018-02-27T14:43:57.834Z,2.92
2018-02-27T14:46:25.393Z,2.62
2018-02-27T14:48:52.900Z,3.42
2018-02-27T14:51:20.431Z,3.15
2018-02-27T14:53:48.691Z,2.90
2018-02-27T14:56:16.966Z,3.10
2018-02-27T14:58:44.464Z,3.97
2018-02-27T15:01:11.970Z,3.97
2018-02-27T15:03:39.489Z,3.87
2018-02-27T15:06:07.021Z,4.72
2018-02-27T15:08:34.627Z,4.72
2018-02-27T15:11:02.189Z,4.90
2018-02-27T15:13:29.701Z,3.40
2018-02-27T15:15:57.228Z,3.35
2018-02-27T15:18:24.868Z,3.20
2018-02-27T15:20:52.452Z,3.58
2018-02-27T15:23:19.952Z,3.85
2018-02-27T15:25:47.478Z,3.83
2018-02-27T15:28:15.755Z,4.22
2018-02-27T15:30:44.030Z,4.20
2018-02-27T15:33:12.314Z,4.15
2018-02-27T15:35:40.626Z,4.85
2018-02-27T15:38:08.138Z,5.80
2018-02-27T15:40:36.436Z,5.75
2018-02-27T15:43:03.955Z,5.80
2018-02-27T15:45:31.501Z,4.20
2018-02-27T15:47:59.003Z,5.12
2018-02-27T15:50:27.300Z,4.95
2018-02-27T15:52:54.870Z,5.30
2018-02-27T15:55:22.415Z,5.55
2018-02-27T15:57:49.933Z,3.92
2018-02-27T16:00:17.440Z,4.50
2018-02-27T16:02:44.972Z,6.20
2018-02-27T16:05:13.245Z,3.45
2018-02-27T16:07:41.557Z,4.18
2018-02-27T16:10:09.087Z,3.95
2018-02-27T16:12:37.356Z,3.22
2018-02-27T16:15:05.619Z,4.32
2018-02-27T16:17:33.146Z,5.75
2018-02-27T16:20:00.654Z,7.87
2018-02-27T16:22:29.763Z,5.93
2018-02-27T16:24:57.278Z,5.80
2018-02-27T16:27:24.814Z,4.95
2018-02-27T16:29:52.496Z,5.78
2018-02-27T16:32:20.033Z,5.18
2018-02-27T16:34:47.548Z,7.20
2018-02-27T16:37:15.862Z,5.45
2018-02-27T16:39:43.424Z,6.80
2018-02-27T16:42:10.942Z,8.20
2018-02-27T16:44:39.242Z,9.90
2018-02-27T16:47:06.774Z,6.07
2018-02-27T16:49:35.066Z,7.28
2018-02-27T16:52:02.598Z,5.45
2018-02-27T16:54:30.115Z,5.12
2018-02-27T16:56:57.713Z,7.37
2018-02-27T16:59:25.230Z,6.00
2018-02-27T17:01:52.772Z,6.80
2018-02-27T17:04:20.291Z,4.15
2018-02-27T17:06:47.808Z,5.65
2018-02-27T17:09:15.305Z,9.52
2018-02-27T17:11:43.497Z,7.18
2018-02-27T17:14:11.771Z,7.55
2018-02-27T17:16:40.077Z,8.02
2018-02-27T17:19:07.578Z,7.00
2018-02-27T17:21:35.870Z,5.87
2018-02-27T17:24:03.385Z,5.60
2018-02-27T17:26:30.954Z,7.50
2018-02-27T17:28:58.595Z,7.90
2018-02-27T17:31:26.128Z,8.35
2018-02-27T17:33:54.411Z,5.45
2018-02-27T17:36:22.705Z,5.15
2018-02-27T17:38:50.222Z,4.12
2018-02-27T17:41:17.840Z,5.68
2018-02-27T17:43:45.343Z,5.85
2018-02-27T17:46:12.850Z,5.40
2018-02-27T17:48:40.338Z,4.97
2018-02-27T17:51:07.869Z,5.28
2018-02-27T17:53:35.383Z,6.03
2018-02-27T17:56:02.916Z,7.05
2018-02-27T17:58:30.432Z,5.90
2018-02-27T18:00:57.952Z,5.20
2018-02-27T18:03:25.460Z,4.78
2018-02-27T18:05:53.001Z,4.87
2018-02-27T18:08:20.512Z,5.25
2018-02-27T18:10:48.030Z,4.35
2018-02-27T18:13:15.545Z,4.35
2018-02-27T18:15:43.066Z,4.72
2018-02-27T18:18:10.589Z,4.20
2018-02-27T18:20:38.115Z,4.20
2018-02-27T18:23:05.622Z,5.32
2018-02-27T18:25:33.169Z,5.12
2018-02-27T18:28:00.685Z,5.87
2018-02-27T18:30:28.219Z,4.80
2018-02-27T18:32:55.839Z,5.90
2018-02-27T18:35:23.278Z,4.80
2018-02-27T18:37:50.837Z,5.07
2018-02-27T18:40:18.362Z,5.47
2018-02-27T18:42:45.910Z,5.85
2018-02-27T18:45:13.420Z,6.15
2018-02-27T18:47:40.948Z,5.78
2018-02-27T18:50:08.480Z,6.50
2018-02-27T18:52:36.015Z,7.15
2018-02-27T18:55:04.306Z,11.85
2018-02-27T18:57:31.832Z,9.10
2018-02-27T18:59:59.344Z,10.90
2018-02-27T19:02:26.867Z,13.45
2018-02-27T19:04:55.139Z,12.77
2018-02-27T19:07:23.449Z,12.70
2018-02-27T19:09:50.967Z,11.88
2018-02-27T19:12:19.267Z,9.95
2018-02-27T19:14:46.793Z,12.02
2018-02-27T19:17:14.341Z,10.40
2018-02-27T19:19:41.867Z,9.15
2018-02-27T19:22:09.407Z,7.32
2018-02-27T19:24:36.912Z,8.18
2018-02-27T19:27:04.454Z,7.93
2018-02-27T19:29:31.966Z,8.38
2018-02-27T19:31:59.499Z,8.40
2018-02-27T19:34:27.011Z,8.10
2018-02-27T19:36:54.563Z,8.45
2018-02-27T19:39:22.094Z,8.95
2018-02-27T19:41:50.401Z,7.75
2018-02-27T19:44:17.937Z,7.78
2018-02-27T19:46:46.225Z,8.55
2018-02-27T19:49:13.745Z,7.93
2018-02-27T19:51:41.265Z,9.13
2018-02-27T19:54:08.779Z,7.45
2018-02-27T19:56:37.066Z,8.00
2018-02-27T19:59:05.360Z,8.50
2018-02-27T20:01:32.904Z,8.38
2018-02-27T20:04:00.417Z,8.63
2018-02-27T20:06:27.962Z,8.95
2018-02-27T20:08:55.484Z,8.25
2018-02-27T20:11:23.019Z,8.93
2018-02-27T20:13:51.336Z,10.65
2018-02-27T20:16:18.880Z,10.43
2018-02-27T20:18:46.414Z,9.68
2018-02-27T20:21:14.719Z,10.05
2018-02-27T20:23:48.006Z,11.50
2018-02-27T20:26:15.528Z,9.75
2018-02-27T20:28:48.702Z,10.90
2018-02-27T20:31:16.243Z,10.32
2018-02-27T20:33:43.768Z,9.95
2018-02-27T20:36:11.319Z,9.80
2018-02-27T20:38:45.238Z,10.05
2018-02-27T20:41:12.764Z,9.50
2018-02-27T20:43:40.288Z,9.13
2018-02-27T20:46:07.816Z,8.18
2018-02-27T20:48:36.246Z,8.27
2018-02-27T20:51:03.776Z,9.50
2018-02-27T20:53:31.284Z,8.10
2018-02-27T20:55:58.822Z,9.93
2018-02-27T20:58:27.090Z,10.20
2018-02-27T21:00:54.622Z,13.48
2018-02-27T21:03:22.135Z,13.23
2018-02-27T21:05:49.654Z,9.05
2018-02-27T21:08:17.202Z,9.40
2018-02-27T21:10:44.774Z,10.60
2018-02-27T21:13:12.298Z,9.52
2018-02-27T21:15:39.882Z,10.18
2018-02-27T21:18:07.403Z,8.55
2018-02-27T21:20:35.684Z,8.90
2018-02-27T21:23:03.967Z,9.70
2018-02-27T21:25:31.481Z,10.10
2018-02-27T21:27:59.010Z,11.02
2018-02-27T21:30:26.605Z,10.85
2018-02-27T21:32:54.080Z,12.13
2018-02-27T21:35:21.600Z,12.35
2018-02-27T21:37:49.118Z,12.25
2018-02-27T21:40:17.400Z,13.13
2018-02-27T21:42:44.938Z,11.38
2018-02-27T21:45:13.228Z,13.23
2018-02-27T21:47:41.542Z,12.23
2018-02-27T21:50:09.052Z,12.25
2018-02-27T21:52:37.380Z,14.70
2018-02-27T21:55:04.862Z,14.87
2018-02-27T21:57:32.390Z,14.05
2018-02-27T21:59:59.919Z,14.82
2018-02-27T22:02:28.288Z,14.18
2018-02-27T22:04:56.588Z,15.05
2018-02-27T22:07:24.198Z,14.87
2018-02-27T22:09:51.734Z,16.48
2018-02-27T22:12:19.254Z,19.00
2018-02-27T22:14:47.550Z,17.42
2018-02-27T22:17:15.069Z,15.93
2018-02-27T22:19:43.375Z,16.37
2018-02-27T22:22:10.891Z,14.50
2018-02-27T22:24:38.428Z,12.25
2018-02-27T22:27:06.379Z,12.52
2018-02-27T22:29:33.901Z,13.60
2018-02-27T22:32:02.220Z,14.85
2018-02-27T22:34:29.738Z,13.20
2018-02-27T22:36:58.033Z,14.10
2018-02-27T22:39:25.628Z,17.30
2018-02-27T22:41:53.140Z,16.65
2018-02-27T22:44:20.698Z,16.75
2018-02-27T22:46:48.244Z,17.25
2018-02-27T22:49:16.540Z,16.80
2018-02-27T22:51:44.092Z,14.50
2018-02-27T22:54:11.597Z,13.93
2018-02-27T22:56:39.126Z,13.70
2018-02-27T22:59:06.666Z,14.02
2018-02-27T23:01:34.179Z,13.18
2018-02-27T23:04:01.733Z,13.85
2018-02-27T23:06:29.249Z,11.95
2018-02-27T23:08:56.788Z,13.75
2018-02-27T23:11:25.073Z,14.13
2018-02-27T23:13:53.353Z,12.27
2018-02-27T23:16:21.657Z,13.70
2018-02-27T23:18:49.180Z,11.50
2018-02-27T23:21:17.480Z,11.40
2018-02-27T23:23:56.560Z,12.27
2018-02-27T23:26:29.458Z,12.30
2018-02-27T23:29:04.996Z,11.05
2018-02-27T23:31:32.969Z,11.45
2018-02-27T23:34:16.274Z,12.57
2018-02-27T23:36:43.800Z,10.55
2018-02-27T23:39:11.320Z,12.27
2018-02-27T23:41:38.827Z,11.77
2018-02-27T23:44:06.351Z,10.40
2018-02-27T23:46:33.859Z,10.52
2018-02-27T23:49:01.396Z,10.55
2018-02-27T23:51:28.926Z,11.40
2018-02-27T23:53:57.218Z,11.27
2018-02-27T23:56:24.756Z,10.35
2018-02-27T23:58:53.049Z,8.23
